sensor_id;sensor_type;location;lat;lon;timestamp;P1;durP1;ratioP1;P2;durP2;ratioP2
75367;SDS011;63954;51.948;5.888;2022-10-16T00:01:26;8.35;;;1.90;;
75367;SDS011;63954;51.948;5.888;2022-10-16T00:03:55;4.88;;;1.80;;
75367;SDS011;63954;51.948;5.888;2022-10-16T00:06:25;8.80;;;1.30;;
75367;SDS011;63954;51.948;5.888;2022-10-16T00:08:54;6.50;;;1.83;;
75367;SDS011;63954;51.948;5.888;2022-10-16T00:11:24;5.75;;;1.50;;
75367;SDS011;63954;51.948;5.888;2022-10-16T00:13:58;9.13;;;1.88;;
75367;SDS011;63954;51.948;5.888;2022-10-16T00:16:29;6.35;;;2.13;;
75367;SDS011;63954;51.948;5.888;2022-10-16T00:18:57;5.72;;;1.58;;
75367;SDS011;63954;51.948;5.888;2022-10-16T00:21:26;7.35;;;3.13;;
75367;SDS011;63954;51.948;5.888;2022-10-16T00:23:55;5.43;;;1.63;;
75367;SDS011;63954;51.948;5.888;2022-10-16T00:26:27;7.57;;;2.40;;
75367;SDS011;63954;51.948;5.888;2022-10-16T00:28:58;6.72;;;2.72;;
75367;SDS011;63954;51.948;5.888;2022-10-16T00:31:25;5.30;;;2.35;;
75367;SDS011;63954;51.948;5.888;2022-10-16T00:33:55;6.45;;;2.63;;
75367;SDS011;63954;51.948;5.888;2022-10-16T00:36:26;7.97;;;2.80;;
75367;SDS011;63954;51.948;5.888;2022-10-16T00:38:56;6.13;;;3.28;;
75367;SDS011;63954;51.948;5.888;2022-10-16T00:41:26;8.48;;;3.33;;
75367;SDS011;63954;51.948;5.888;2022-10-16T00:43:55;4.95;;;2.08;;
75367;SDS011;63954;51.948;5.888;2022-10-16T00:46:27;9.90;;;3.25;;
75367;SDS011;63954;51.948;5.888;2022-10-16T00:48:59;7.28;;;2.33;;
75367;SDS011;63954;51.948;5.888;2022-10-16T00:51:30;8.88;;;3.17;;
75367;SDS011;63954;51.948;5.888;2022-10-16T00:54:00;7.78;;;2.42;;
75367;SDS011;63954;51.948;5.888;2022-10-16T00:56:29;8.07;;;2.80;;
75367;SDS011;63954;51.948;5.888;2022-10-16T00:58:59;7.75;;;2.83;;
75367;SDS011;63954;51.948;5.888;2022-10-16T01:01:32;4.53;;;1.80;;
75367;SDS011;63954;51.948;5.888;2022-10-16T01:04:00;6.43;;;2.60;;
75367;SDS011;63954;51.948;5.888;2022-10-16T01:06:29;9.20;;;3.33;;
75367;SDS011;63954;51.948;5.888;2022-10-16T01:09:14;6.43;;;2.80;;
75367;SDS011;63954;51.948;5.888;2022-10-16T01:11:49;7.53;;;2.58;;
75367;SDS011;63954;51.948;5.888;2022-10-16T01:14:27;4.88;;;2.30;;
75367;SDS011;63954;51.948;5.888;2022-10-16T01:17:07;8.52;;;2.97;;
75367;SDS011;63954;51.948;5.888;2022-10-16T01:19:44;7.57;;;2.47;;
75367;SDS011;63954;51.948;5.888;2022-10-16T01:22:33;7.50;;;3.17;;
75367;SDS011;63954;51.948;5.888;2022-10-16T01:25:09;6.82;;;2.90;;
75367;SDS011;63954;51.948;5.888;2022-10-16T01:27:42;8.75;;;3.55;;
75367;SDS011;63954;51.948;5.888;2022-10-16T01:30:17;8.02;;;2.67;;
75367;SDS011;63954;51.948;5.888;2022-10-16T01:32:49;9.20;;;3.72;;
75367;SDS011;63954;51.948;5.888;2022-10-16T01:35:21;6.63;;;2.33;;
75367;SDS011;63954;51.948;5.888;2022-10-16T01:37:53;8.60;;;3.35;;
75367;SDS011;63954;51.948;5.888;2022-10-16T01:40:24;6.05;;;2.10;;
75367;SDS011;63954;51.948;5.888;2022-10-16T01:42:55;4.63;;;1.27;;
75367;SDS011;63954;51.948;5.888;2022-10-16T01:45:27;8.10;;;2.80;;
75367;SDS011;63954;51.948;5.888;2022-10-16T01:47:56;9.20;;;3.13;;
75367;SDS011;63954;51.948;5.888;2022-10-16T01:50:29;7.43;;;2.47;;
75367;SDS011;63954;51.948;5.888;2022-10-16T01:52:59;6.10;;;2.58;;
75367;SDS011;63954;51.948;5.888;2022-10-16T01:55:31;5.72;;;2.38;;
75367;SDS011;63954;51.948;5.888;2022-10-16T01:58:05;8.43;;;2.63;;
75367;SDS011;63954;51.948;5.888;2022-10-16T02:00:36;6.10;;;2.10;;
75367;SDS011;63954;51.948;5.888;2022-10-16T02:03:06;4.82;;;1.30;;
75367;SDS011;63954;51.948;5.888;2022-10-16T02:08:06;4.72;;;1.63;;
75367;SDS011;63954;51.948;5.888;2022-10-16T02:10:34;9.50;;;2.58;;
75367;SDS011;63954;51.948;5.888;2022-10-16T02:13:03;5.97;;;2.97;;
75367;SDS011;63954;51.948;5.888;2022-10-16T02:15:35;6.40;;;2.38;;
75367;SDS011;63954;51.948;5.888;2022-10-16T02:18:03;9.82;;;2.80;;
75367;SDS011;63954;51.948;5.888;2022-10-16T02:20:32;5.18;;;2.05;;
75367;SDS011;63954;51.948;5.888;2022-10-16T02:23:17;6.00;;;2.03;;
75367;SDS011;63954;51.948;5.888;2022-10-16T02:25:51;6.43;;;1.98;;
75367;SDS011;63954;51.948;5.888;2022-10-16T02:28:23;5.95;;;2.50;;
75367;SDS011;63954;51.948;5.888;2022-10-16T02:30:55;5.40;;;2.35;;
75367;SDS011;63954;51.948;5.888;2022-10-16T02:33:25;4.32;;;1.92;;
75367;SDS011;63954;51.948;5.888;2022-10-16T02:35:57;5.88;;;1.95;;
75367;SDS011;63954;51.948;5.888;2022-10-16T02:38:26;5.68;;;3.13;;
75367;SDS011;63954;51.948;5.888;2022-10-16T02:40:56;4.78;;;1.55;;
75367;SDS011;63954;51.948;5.888;2022-10-16T02:43:27;6.25;;;2.15;;
75367;SDS011;63954;51.948;5.888;2022-10-16T02:45:55;5.53;;;1.88;;
75367;SDS011;63954;51.948;5.888;2022-10-16T02:48:22;5.47;;;1.85;;
75367;SDS011;63954;51.948;5.888;2022-10-16T02:50:51;5.45;;;1.67;;
75367;SDS011;63954;51.948;5.888;2022-10-16T02:53:18;5.95;;;1.42;;
75367;SDS011;63954;51.948;5.888;2022-10-16T02:55:49;5.05;;;1.75;;
75367;SDS011;63954;51.948;5.888;2022-10-16T02:58:17;6.47;;;1.90;;
75367;SDS011;63954;51.948;5.888;2022-10-16T03:00:46;5.82;;;1.77;;
75367;SDS011;63954;51.948;5.888;2022-10-16T03:03:16;4.68;;;1.58;;
75367;SDS011;63954;51.948;5.888;2022-10-16T03:05:43;6.00;;;0.95;;
75367;SDS011;63954;51.948;5.888;2022-10-16T03:08:13;4.40;;;1.33;;
75367;SDS011;63954;51.948;5.888;2022-10-16T03:10:41;4.18;;;1.48;;
75367;SDS011;63954;51.948;5.888;2022-10-16T03:13:08;7.80;;;1.83;;
75367;SDS011;63954;51.948;5.888;2022-10-16T03:15:39;5.18;;;1.45;;
75367;SDS011;63954;51.948;5.888;2022-10-16T03:18:07;5.93;;;1.73;;
75367;SDS011;63954;51.948;5.888;2022-10-16T03:20:37;7.13;;;3.58;;
75367;SDS011;63954;51.948;5.888;2022-10-16T03:23:04;12.15;;;6.75;;
75367;SDS011;63954;51.948;5.888;2022-10-16T03:25:33;6.25;;;4.03;;
75367;SDS011;63954;51.948;5.888;2022-10-16T03:28:03;9.30;;;5.05;;
75367;SDS011;63954;51.948;5.888;2022-10-16T03:30:31;6.20;;;3.20;;
75367;SDS011;63954;51.948;5.888;2022-10-16T03:33:03;9.93;;;3.67;;
75367;SDS011;63954;51.948;5.888;2022-10-16T03:35:31;4.10;;;1.52;;
75367;SDS011;63954;51.948;5.888;2022-10-16T03:37:59;5.00;;;2.22;;
75367;SDS011;63954;51.948;5.888;2022-10-16T03:40:26;5.80;;;2.03;;
75367;SDS011;63954;51.948;5.888;2022-10-16T03:42:57;4.97;;;1.85;;
75367;SDS011;63954;51.948;5.888;2022-10-16T03:45:27;5.50;;;2.67;;
75367;SDS011;63954;51.948;5.888;2022-10-16T03:47:57;4.55;;;1.45;;
75367;SDS011;63954;51.948;5.888;2022-10-16T03:50:24;5.90;;;1.20;;
75367;SDS011;63954;51.948;5.888;2022-10-16T03:52:53;5.70;;;1.42;;
75367;SDS011;63954;51.948;5.888;2022-10-16T03:55:22;5.35;;;1.70;;
75367;SDS011;63954;51.948;5.888;2022-10-16T03:57:49;5.78;;;1.27;;
75367;SDS011;63954;51.948;5.888;2022-10-16T04:00:19;5.63;;;1.33;;
75367;SDS011;63954;51.948;5.888;2022-10-16T04:02:46;4.32;;;1.15;;
75367;SDS011;63954;51.948;5.888;2022-10-16T04:05:17;5.07;;;1.33;;
75367;SDS011;63954;51.948;5.888;2022-10-16T04:07:45;5.05;;;1.48;;
75367;SDS011;63954;51.948;5.888;2022-10-16T04:10:17;7.25;;;1.63;;
75367;SDS011;63954;51.948;5.888;2022-10-16T04:12:44;4.82;;;1.77;;
75367;SDS011;63954;51.948;5.888;2022-10-16T04:15:12;5.50;;;1.42;;
75367;SDS011;63954;51.948;5.888;2022-10-16T04:17:39;4.82;;;1.55;;
75367;SDS011;63954;51.948;5.888;2022-10-16T04:20:07;4.38;;;1.05;;
75367;SDS011;63954;51.948;5.888;2022-10-16T04:22:38;5.47;;;1.08;;
75367;SDS011;63954;51.948;5.888;2022-10-16T04:25:08;5.53;;;1.20;;
75367;SDS011;63954;51.948;5.888;2022-10-16T04:27:40;5.70;;;1.33;;
75367;SDS011;63954;51.948;5.888;2022-10-16T04:30:08;5.15;;;1.75;;
75367;SDS011;63954;51.948;5.888;2022-10-16T04:32:38;5.90;;;1.40;;
75367;SDS011;63954;51.948;5.888;2022-10-16T04:35:09;4.45;;;1.27;;
75367;SDS011;63954;51.948;5.888;2022-10-16T04:37:38;5.60;;;1.85;;
75367;SDS011;63954;51.948;5.888;2022-10-16T04:40:06;6.65;;;1.45;;
75367;SDS011;63954;51.948;5.888;2022-10-16T04:42:46;6.57;;;1.60;;
75367;SDS011;63954;51.948;5.888;2022-10-16T04:45:16;6.95;;;1.88;;
75367;SDS011;63954;51.948;5.888;2022-10-16T04:47:58;5.88;;;1.55;;
75367;SDS011;63954;51.948;5.888;2022-10-16T04:50:28;9.02;;;2.38;;
75367;SDS011;63954;51.948;5.888;2022-10-16T04:53:07;7.05;;;1.73;;
75367;SDS011;63954;51.948;5.888;2022-10-16T04:55:37;5.07;;;1.50;;
75367;SDS011;63954;51.948;5.888;2022-10-16T05:33:30;5.00;;;1.55;;
75367;SDS011;63954;51.948;5.888;2022-10-16T05:36:00;7.32;;;2.00;;
75367;SDS011;63954;51.948;5.888;2022-10-16T05:38:28;6.45;;;1.65;;
75367;SDS011;63954;51.948;5.888;2022-10-16T05:43:48;6.68;;;1.98;;
75367;SDS011;63954;51.948;5.888;2022-10-16T05:46:20;5.63;;;2.55;;
75367;SDS011;63954;51.948;5.888;2022-10-16T05:52:17;5.68;;;1.38;;
75367;SDS011;63954;51.948;5.888;2022-10-16T05:54:44;5.93;;;1.27;;
75367;SDS011;63954;51.948;5.888;2022-10-16T05:57:16;5.07;;;2.22;;
75367;SDS011;63954;51.948;5.888;2022-10-16T06:00:05;6.35;;;3.00;;
75367;SDS011;63954;51.948;5.888;2022-10-16T06:02:47;5.78;;;1.75;;
75367;SDS011;63954;51.948;5.888;2022-10-16T06:05:23;7.20;;;2.10;;
75367;SDS011;63954;51.948;5.888;2022-10-16T06:07:50;6.45;;;2.72;;
75367;SDS011;63954;51.948;5.888;2022-10-16T06:10:20;7.40;;;2.15;;
75367;SDS011;63954;51.948;5.888;2022-10-16T06:16:43;6.07;;;2.15;;
75367;SDS011;63954;51.948;5.888;2022-10-16T06:19:18;5.78;;;2.53;;
75367;SDS011;63954;51.948;5.888;2022-10-16T06:21:47;6.57;;;2.03;;
75367;SDS011;63954;51.948;5.888;2022-10-16T06:24:18;6.57;;;2.15;;
75367;SDS011;63954;51.948;5.888;2022-10-16T06:26:56;6.55;;;2.17;;
75367;SDS011;63954;51.948;5.888;2022-10-16T06:29:45;7.97;;;2.83;;
75367;SDS011;63954;51.948;5.888;2022-10-16T06:32:15;6.38;;;2.05;;
75367;SDS011;63954;51.948;5.888;2022-10-16T06:34:43;7.65;;;2.40;;
75367;SDS011;63954;51.948;5.888;2022-10-16T06:37:14;5.07;;;1.75;;
75367;SDS011;63954;51.948;5.888;2022-10-16T06:39:58;5.80;;;2.47;;
75367;SDS011;63954;51.948;5.888;2022-10-16T06:42:25;5.95;;;1.73;;
75367;SDS011;63954;51.948;5.888;2022-10-16T06:44:53;7.03;;;2.15;;
75367;SDS011;63954;51.948;5.888;2022-10-16T06:47:25;7.35;;;2.30;;
75367;SDS011;63954;51.948;5.888;2022-10-16T06:49:52;6.53;;;2.35;;
75367;SDS011;63954;51.948;5.888;2022-10-16T06:52:21;7.70;;;1.80;;
75367;SDS011;63954;51.948;5.888;2022-10-16T06:54:51;6.88;;;1.92;;
75367;SDS011;63954;51.948;5.888;2022-10-16T07:05:10;5.38;;;1.83;;
75367;SDS011;63954;51.948;5.888;2022-10-16T07:08:01;4.50;;;1.30;;
75367;SDS011;63954;51.948;5.888;2022-10-16T07:11:08;6.18;;;1.60;;
75367;SDS011;63954;51.948;5.888;2022-10-16T07:13:38;9.20;;;1.42;;
75367;SDS011;63954;51.948;5.888;2022-10-16T07:16:08;6.63;;;2.00;;
75367;SDS011;63954;51.948;5.888;2022-10-16T07:18:37;6.03;;;1.90;;
75367;SDS011;63954;51.948;5.888;2022-10-16T07:21:08;4.75;;;1.65;;
75367;SDS011;63954;51.948;5.888;2022-10-16T07:23:45;6.13;;;1.67;;
75367;SDS011;63954;51.948;5.888;2022-10-16T07:26:32;6.13;;;2.00;;
75367;SDS011;63954;51.948;5.888;2022-10-16T07:29:12;5.57;;;1.80;;
75367;SDS011;63954;51.948;5.888;2022-10-16T07:33:25;5.15;;;1.88;;
75367;SDS011;63954;51.948;5.888;2022-10-16T07:38:38;8.50;;;2.53;;
75367;SDS011;63954;51.948;5.888;2022-10-16T07:44:40;7.40;;;1.35;;
75367;SDS011;63954;51.948;5.888;2022-10-16T07:47:07;6.40;;;1.80;;
75367;SDS011;63954;51.948;5.888;2022-10-16T07:49:36;7.65;;;1.95;;
75367;SDS011;63954;51.948;5.888;2022-10-16T07:52:03;5.28;;;1.50;;
75367;SDS011;63954;51.948;5.888;2022-10-16T07:54:30;6.38;;;1.40;;
75367;SDS011;63954;51.948;5.888;2022-10-16T07:57:05;6.53;;;1.80;;
75367;SDS011;63954;51.948;5.888;2022-10-16T07:59:40;9.77;;;1.80;;
75367;SDS011;63954;51.948;5.888;2022-10-16T08:02:40;6.53;;;1.40;;
75367;SDS011;63954;51.948;5.888;2022-10-16T08:05:08;6.65;;;1.67;;
75367;SDS011;63954;51.948;5.888;2022-10-16T08:07:36;5.90;;;1.73;;
75367;SDS011;63954;51.948;5.888;2022-10-16T08:10:04;6.38;;;1.70;;
75367;SDS011;63954;51.948;5.888;2022-10-16T08:12:32;5.40;;;1.42;;
75367;SDS011;63954;51.948;5.888;2022-10-16T08:15:04;4.97;;;1.90;;
75367;SDS011;63954;51.948;5.888;2022-10-16T08:17:35;4.45;;;1.20;;
75367;SDS011;63954;51.948;5.888;2022-10-16T08:20:08;10.73;;;1.77;;
75367;SDS011;63954;51.948;5.888;2022-10-16T08:22:40;5.13;;;1.40;;
75367;SDS011;63954;51.948;5.888;2022-10-16T08:25:07;5.28;;;1.50;;
75367;SDS011;63954;51.948;5.888;2022-10-16T08:27:35;7.38;;;1.60;;
75367;SDS011;63954;51.948;5.888;2022-10-16T08:30:04;10.30;;;1.80;;
75367;SDS011;63954;51.948;5.888;2022-10-16T08:32:32;6.47;;;1.67;;
75367;SDS011;63954;51.948;5.888;2022-10-16T08:34:59;5.53;;;1.90;;
75367;SDS011;63954;51.948;5.888;2022-10-16T08:37:30;6.20;;;1.88;;
75367;SDS011;63954;51.948;5.888;2022-10-16T08:49:10;5.22;;;1.48;;
75367;SDS011;63954;51.948;5.888;2022-10-16T08:51:42;6.22;;;2.53;;
75367;SDS011;63954;51.948;5.888;2022-10-16T08:56:01;6.30;;;1.40;;
75367;SDS011;63954;51.948;5.888;2022-10-16T09:00:21;5.35;;;1.27;;
75367;SDS011;63954;51.948;5.888;2022-10-16T09:01:58;7.25;;;1.13;;
75367;SDS011;63954;51.948;5.888;2022-10-16T09:05:23;6.22;;;1.17;;
75367;SDS011;63954;51.948;5.888;2022-10-16T09:08:07;9.05;;;1.15;;
75367;SDS011;63954;51.948;5.888;2022-10-16T09:14:05;6.63;;;1.33;;
75367;SDS011;63954;51.948;5.888;2022-10-16T09:16:57;4.95;;;0.95;;
75367;SDS011;63954;51.948;5.888;2022-10-16T09:19:56;6.22;;;1.73;;
75367;SDS011;63954;51.948;5.888;2022-10-16T09:23:04;6.97;;;1.15;;
75367;SDS011;63954;51.948;5.888;2022-10-16T09:25:39;5.63;;;0.63;;
75367;SDS011;63954;51.948;5.888;2022-10-16T09:28:33;6.68;;;1.30;;
75367;SDS011;63954;51.948;5.888;2022-10-16T09:31:32;5.45;;;1.77;;
75367;SDS011;63954;51.948;5.888;2022-10-16T09:37:59;6.47;;;0.70;;
75367;SDS011;63954;51.948;5.888;2022-10-16T09:43:01;6.75;;;1.58;;
75367;SDS011;63954;51.948;5.888;2022-10-16T09:46:02;8.10;;;1.55;;
75367;SDS011;63954;51.948;5.888;2022-10-16T09:48:37;7.68;;;1.27;;
75367;SDS011;63954;51.948;5.888;2022-10-16T09:51:30;7.85;;;1.13;;
75367;SDS011;63954;51.948;5.888;2022-10-16T09:58:13;8.65;;;0.93;;
75367;SDS011;63954;51.948;5.888;2022-10-16T10:04:25;5.05;;;0.68;;
75367;SDS011;63954;51.948;5.888;2022-10-16T10:07:23;6.70;;;1.10;;
75367;SDS011;63954;51.948;5.888;2022-10-16T10:09:56;8.50;;;0.90;;
75367;SDS011;63954;51.948;5.888;2022-10-16T10:12:29;7.28;;;1.13;;
75367;SDS011;63954;51.948;5.888;2022-10-16T10:15:03;9.35;;;1.40;;
75367;SDS011;63954;51.948;5.888;2022-10-16T10:17:57;10.60;;;1.30;;
75367;SDS011;63954;51.948;5.888;2022-10-16T10:21:14;9.02;;;1.48;;
75367;SDS011;63954;51.948;5.888;2022-10-16T10:27:08;7.72;;;1.35;;
75367;SDS011;63954;51.948;5.888;2022-10-16T10:30:01;13.77;;;3.90;;
75367;SDS011;63954;51.948;5.888;2022-10-16T10:32:43;12.80;;;3.35;;
75367;SDS011;63954;51.948;5.888;2022-10-16T10:35:38;14.80;;;4.82;;
75367;SDS011;63954;51.948;5.888;2022-10-16T10:41:30;9.95;;;1.40;;
75367;SDS011;63954;51.948;5.888;2022-10-16T10:44:57;10.55;;;1.48;;
75367;SDS011;63954;51.948;5.888;2022-10-16T10:51:20;10.57;;;1.13;;
75367;SDS011;63954;51.948;5.888;2022-10-16T10:55:09;9.77;;;0.98;;
75367;SDS011;63954;51.948;5.888;2022-10-16T10:58:15;10.80;;;0.57;;
75367;SDS011;63954;51.948;5.888;2022-10-16T11:08:26;8.05;;;1.10;;
75367;SDS011;63954;51.948;5.888;2022-10-16T11:14:04;8.27;;;0.63;;
75367;SDS011;63954;51.948;5.888;2022-10-16T11:17:17;11.20;;;1.45;;
75367;SDS011;63954;51.948;5.888;2022-10-16T11:20:05;10.30;;;0.55;;
75367;SDS011;63954;51.948;5.888;2022-10-16T11:23:07;12.80;;;1.17;;
75367;SDS011;63954;51.948;5.888;2022-10-16T11:25:43;6.03;;;1.20;;
75367;SDS011;63954;51.948;5.888;2022-10-16T11:28:48;9.80;;;0.93;;
75367;SDS011;63954;51.948;5.888;2022-10-16T11:31:37;9.35;;;1.25;;
75367;SDS011;63954;51.948;5.888;2022-10-16T11:37:44;8.00;;;0.65;;
75367;SDS011;63954;51.948;5.888;2022-10-16T11:44:16;5.70;;;0.73;;
75367;SDS011;63954;51.948;5.888;2022-10-16T11:47:30;6.70;;;0.73;;
75367;SDS011;63954;51.948;5.888;2022-10-16T11:50:17;12.55;;;1.38;;
75367;SDS011;63954;51.948;5.888;2022-10-16T11:53:09;11.48;;;1.42;;
75367;SDS011;63954;51.948;5.888;2022-10-16T12:27:42;13.73;;;1.77;;
75367;SDS011;63954;51.948;5.888;2022-10-16T12:32:01;6.30;;;1.00;;
75367;SDS011;63954;51.948;5.888;2022-10-16T12:44:58;8.07;;;1.17;;
75367;SDS011;63954;51.948;5.888;2022-10-16T12:55:41;8.50;;;1.13;;
75367;SDS011;63954;51.948;5.888;2022-10-16T13:10:02;9.85;;;1.15;;
75367;SDS011;63954;51.948;5.888;2022-10-16T13:17:08;5.70;;;1.23;;
75367;SDS011;63954;51.948;5.888;2022-10-16T13:20:21;9.75;;;0.85;;
75367;SDS011;63954;51.948;5.888;2022-10-16T13:27:46;8.30;;;0.65;;
75367;SDS011;63954;51.948;5.888;2022-10-16T14:03:13;5.60;;;1.05;;
75367;SDS011;63954;51.948;5.888;2022-10-16T14:05:43;8.43;;;1.45;;
75367;SDS011;63954;51.948;5.888;2022-10-16T14:09:04;9.25;;;0.95;;
75367;SDS011;63954;51.948;5.888;2022-10-16T14:12:11;8.00;;;1.13;;
75367;SDS011;63954;51.948;5.888;2022-10-16T14:14:58;6.50;;;0.80;;
75367;SDS011;63954;51.948;5.888;2022-10-16T14:17:48;6.47;;;1.27;;
75367;SDS011;63954;51.948;5.888;2022-10-16T14:20:22;10.18;;;0.95;;
75367;SDS011;63954;51.948;5.888;2022-10-16T14:22:58;7.20;;;0.75;;
75367;SDS011;63954;51.948;5.888;2022-10-16T14:28:18;4.38;;;0.43;;
75367;SDS011;63954;51.948;5.888;2022-10-16T14:30:53;3.72;;;0.52;;
75367;SDS011;63954;51.948;5.888;2022-10-16T14:33:51;3.40;;;0.55;;
75367;SDS011;63954;51.948;5.888;2022-10-16T14:36:33;5.13;;;0.82;;
75367;SDS011;63954;51.948;5.888;2022-10-16T14:39:14;4.95;;;0.63;;
75367;SDS011;63954;51.948;5.888;2022-10-16T14:52:59;4.03;;;0.63;;
75367;SDS011;63954;51.948;5.888;2022-10-16T14:57:53;7.28;;;0.90;;
75367;SDS011;63954;51.948;5.888;2022-10-16T15:00:21;6.18;;;1.42;;
75367;SDS011;63954;51.948;5.888;2022-10-16T15:02:50;7.43;;;1.02;;
75367;SDS011;63954;51.948;5.888;2022-10-16T15:05:18;7.75;;;1.15;;
75367;SDS011;63954;51.948;5.888;2022-10-16T15:07:47;6.15;;;0.65;;
75367;SDS011;63954;51.948;5.888;2022-10-16T15:10:17;5.95;;;0.65;;
75367;SDS011;63954;51.948;5.888;2022-10-16T15:12:45;2.60;;;0.40;;
75367;SDS011;63954;51.948;5.888;2022-10-16T15:15:19;5.88;;;0.93;;
75367;SDS011;63954;51.948;5.888;2022-10-16T15:17:52;4.78;;;0.43;;
75367;SDS011;63954;51.948;5.888;2022-10-16T15:20:22;3.13;;;0.15;;
75367;SDS011;63954;51.948;5.888;2022-10-16T15:22:50;5.88;;;0.75;;
75367;SDS011;63954;51.948;5.888;2022-10-16T15:25:25;6.72;;;1.13;;
75367;SDS011;63954;51.948;5.888;2022-10-16T15:27:57;7.32;;;0.93;;
75367;SDS011;63954;51.948;5.888;2022-10-16T15:30:25;4.15;;;0.57;;
75367;SDS011;63954;51.948;5.888;2022-10-16T15:32:52;4.38;;;0.52;;
75367;SDS011;63954;51.948;5.888;2022-10-16T15:35:20;2.92;;;0.45;;
75367;SDS011;63954;51.948;5.888;2022-10-16T15:37:48;4.60;;;0.52;;
75367;SDS011;63954;51.948;5.888;2022-10-16T15:40:16;5.30;;;0.75;;
75367;SDS011;63954;51.948;5.888;2022-10-16T15:42:46;6.55;;;0.75;;
75367;SDS011;63954;51.948;5.888;2022-10-16T15:45:13;4.93;;;0.63;;
75367;SDS011;63954;51.948;5.888;2022-10-16T15:47:42;4.43;;;0.80;;
75367;SDS011;63954;51.948;5.888;2022-10-16T15:50:10;5.05;;;0.65;;
75367;SDS011;63954;51.948;5.888;2022-10-16T15:55:06;6.25;;;0.75;;
75367;SDS011;63954;51.948;5.888;2022-10-16T15:57:34;9.02;;;1.00;;
75367;SDS011;63954;51.948;5.888;2022-10-16T16:00:07;2.97;;;0.32;;
75367;SDS011;63954;51.948;5.888;2022-10-16T16:02:37;5.53;;;0.52;;
75367;SDS011;63954;51.948;5.888;2022-10-16T16:05:08;2.88;;;0.43;;
75367;SDS011;63954;51.948;5.888;2022-10-16T16:07:37;8.18;;;1.23;;
75367;SDS011;63954;51.948;5.888;2022-10-16T16:12:33;3.17;;;0.63;;
75367;SDS011;63954;51.948;5.888;2022-10-16T16:15:02;4.95;;;0.68;;
75367;SDS011;63954;51.948;5.888;2022-10-16T16:17:37;2.90;;;0.43;;
75367;SDS011;63954;51.948;5.888;2022-10-16T16:20:13;8.20;;;0.88;;
75367;SDS011;63954;51.948;5.888;2022-10-16T16:22:57;2.40;;;0.28;;
75367;SDS011;63954;51.948;5.888;2022-10-16T16:25:25;3.70;;;0.47;;
75367;SDS011;63954;51.948;5.888;2022-10-16T16:27:53;6.18;;;1.17;;
75367;SDS011;63954;51.948;5.888;2022-10-16T16:30:20;3.55;;;0.82;;
75367;SDS011;63954;51.948;5.888;2022-10-16T16:32:49;4.95;;;1.95;;
75367;SDS011;63954;51.948;5.888;2022-10-16T16:35:16;5.78;;;1.50;;
75367;SDS011;63954;51.948;5.888;2022-10-16T16:37:44;4.38;;;1.13;;
75367;SDS011;63954;51.948;5.888;2022-10-16T16:40:11;5.75;;;1.63;;
75367;SDS011;63954;51.948;5.888;2022-10-16T16:42:38;3.67;;;0.60;;
75367;SDS011;63954;51.948;5.888;2022-10-16T16:45:06;4.72;;;0.70;;
75367;SDS011;63954;51.948;5.888;2022-10-16T16:47:34;4.85;;;0.68;;
75367;SDS011;63954;51.948;5.888;2022-10-16T16:50:03;4.20;;;0.52;;
75367;SDS011;63954;51.948;5.888;2022-10-16T16:52:32;3.92;;;1.27;;
75367;SDS011;63954;51.948;5.888;2022-10-16T16:55:02;5.95;;;0.52;;
75367;SDS011;63954;51.948;5.888;2022-10-16T16:57:30;3.60;;;0.82;;
75367;SDS011;63954;51.948;5.888;2022-10-16T16:59:57;4.20;;;0.98;;
75367;SDS011;63954;51.948;5.888;2022-10-16T17:02:24;3.42;;;0.98;;
75367;SDS011;63954;51.948;5.888;2022-10-16T17:04:51;4.50;;;0.98;;
75367;SDS011;63954;51.948;5.888;2022-10-16T17:07:20;5.45;;;1.48;;
75367;SDS011;63954;51.948;5.888;2022-10-16T17:12:15;5.18;;;1.08;;
75367;SDS011;63954;51.948;5.888;2022-10-16T17:14:42;4.10;;;0.88;;
75367;SDS011;63954;51.948;5.888;2022-10-16T17:17:09;3.10;;;0.70;;
75367;SDS011;63954;51.948;5.888;2022-10-16T17:19:37;10.38;;;3.20;;
75367;SDS011;63954;51.948;5.888;2022-10-16T17:22:09;6.35;;;3.10;;
75367;SDS011;63954;51.948;5.888;2022-10-16T17:24:38;5.05;;;1.45;;
75367;SDS011;63954;51.948;5.888;2022-10-16T17:29:37;4.82;;;1.27;;
75367;SDS011;63954;51.948;5.888;2022-10-16T17:32:04;6.10;;;1.70;;
75367;SDS011;63954;51.948;5.888;2022-10-16T17:34:31;6.30;;;1.70;;
75367;SDS011;63954;51.948;5.888;2022-10-16T17:37:00;4.63;;;1.25;;
75367;SDS011;63954;51.948;5.888;2022-10-16T17:39:27;9.63;;;4.32;;
75367;SDS011;63954;51.948;5.888;2022-10-16T17:41:56;5.22;;;1.38;;
75367;SDS011;63954;51.948;5.888;2022-10-16T17:44:26;5.05;;;1.25;;
75367;SDS011;63954;51.948;5.888;2022-10-16T17:46:53;10.68;;;3.30;;
75367;SDS011;63954;51.948;5.888;2022-10-16T17:49:21;5.03;;;1.17;;
75367;SDS011;63954;51.948;5.888;2022-10-16T17:51:49;7.10;;;1.92;;
75367;SDS011;63954;51.948;5.888;2022-10-16T17:54:17;7.97;;;2.63;;
75367;SDS011;63954;51.948;5.888;2022-10-16T17:56:45;8.70;;;3.42;;
75367;SDS011;63954;51.948;5.888;2022-10-16T17:59:14;10.70;;;3.67;;
75367;SDS011;63954;51.948;5.888;2022-10-16T18:04:11;4.70;;;1.48;;
75367;SDS011;63954;51.948;5.888;2022-10-16T18:06:40;5.85;;;1.30;;
75367;SDS011;63954;51.948;5.888;2022-10-16T18:09:10;3.83;;;0.70;;
75367;SDS011;63954;51.948;5.888;2022-10-16T18:11:40;7.97;;;2.60;;
75367;SDS011;63954;51.948;5.888;2022-10-16T18:14:07;12.80;;;6.25;;
75367;SDS011;63954;51.948;5.888;2022-10-16T18:16:39;11.38;;;5.10;;
75367;SDS011;63954;51.948;5.888;2022-10-16T18:19:07;12.13;;;4.65;;
75367;SDS011;63954;51.948;5.888;2022-10-16T18:24:03;6.57;;;2.95;;
75367;SDS011;63954;51.948;5.888;2022-10-16T18:26:30;4.90;;;1.05;;
75367;SDS011;63954;51.948;5.888;2022-10-16T18:28:57;6.30;;;1.90;;
75367;SDS011;63954;51.948;5.888;2022-10-16T18:31:25;8.27;;;3.05;;
75367;SDS011;63954;51.948;5.888;2022-10-16T18:33:54;6.82;;;1.52;;
75367;SDS011;63954;51.948;5.888;2022-10-16T18:36:22;6.43;;;2.25;;
75367;SDS011;63954;51.948;5.888;2022-10-16T18:38:51;4.28;;;1.33;;
75367;SDS011;63954;51.948;5.888;2022-10-16T18:41:19;8.65;;;2.85;;
75367;SDS011;63954;51.948;5.888;2022-10-16T18:43:46;11.88;;;4.72;;
75367;SDS011;63954;51.948;5.888;2022-10-16T18:46:15;6.40;;;2.55;;
75367;SDS011;63954;51.948;5.888;2022-10-16T18:48:44;4.32;;;1.40;;
75367;SDS011;63954;51.948;5.888;2022-10-16T18:51:14;7.50;;;1.58;;
75367;SDS011;63954;51.948;5.888;2022-10-16T18:53:48;9.05;;;3.45;;
75367;SDS011;63954;51.948;5.888;2022-10-16T18:56:17;11.00;;;4.10;;
75367;SDS011;63954;51.948;5.888;2022-10-16T18:58:46;9.77;;;4.40;;
75367;SDS011;63954;51.948;5.888;2022-10-16T19:01:14;6.22;;;2.03;;
75367;SDS011;63954;51.948;5.888;2022-10-16T19:03:45;6.25;;;2.50;;
75367;SDS011;63954;51.948;5.888;2022-10-16T19:06:14;6.22;;;1.60;;
75367;SDS011;63954;51.948;5.888;2022-10-16T19:08:42;9.13;;;3.90;;
75367;SDS011;63954;51.948;5.888;2022-10-16T19:11:10;8.45;;;3.67;;
75367;SDS011;63954;51.948;5.888;2022-10-16T19:13:42;7.05;;;2.65;;
75367;SDS011;63954;51.948;5.888;2022-10-16T19:16:10;7.82;;;3.58;;
75367;SDS011;63954;51.948;5.888;2022-10-16T19:18:38;6.25;;;2.00;;
75367;SDS011;63954;51.948;5.888;2022-10-16T19:21:07;4.55;;;1.92;;
75367;SDS011;63954;51.948;5.888;2022-10-16T19:23:38;7.70;;;3.22;;
75367;SDS011;63954;51.948;5.888;2022-10-16T19:26:07;5.65;;;1.92;;
75367;SDS011;63954;51.948;5.888;2022-10-16T19:28:36;9.63;;;4.78;;
75367;SDS011;63954;51.948;5.888;2022-10-16T19:31:04;12.93;;;5.35;;
75367;SDS011;63954;51.948;5.888;2022-10-16T19:33:33;11.27;;;4.80;;
75367;SDS011;63954;51.948;5.888;2022-10-16T19:36:07;9.65;;;4.90;;
75367;SDS011;63954;51.948;5.888;2022-10-16T19:38:37;10.77;;;4.53;;
75367;SDS011;63954;51.948;5.888;2022-10-16T19:41:06;9.60;;;4.15;;
75367;SDS011;63954;51.948;5.888;2022-10-16T19:43:35;12.20;;;4.63;;